Terminal Aerodrome Forecast
Issued by NWS Upton, NY

Home | Current Version | Previous Version | Text Only | Print | Product List | Glossary On
Versions: 1 2 3 4 5 6 7 8 9 10 11 12 13 14 15 16 17 18 19 20 21 22 23 24 25 26 27 28 29 30 31 32 33
000
FTUS41 KOKX 190245 AAB
TAFLGA
TAF AMD
KLGA 190245Z 1903/1924 21008KT P6SM FEW040 BKN130
     FM190500 21008KT 6SM BR BKN015
     FM190800 26005KT 6SM BR SCT025 OVC050
      TEMPO 1908/1910 BKN025
     FM191100 31006KT P6SM BKN050
     FM191500 28008KT P6SM SCT025 BKN050
     FM191800 23008KT P6SM SCT040
     FM192000 18011KT P6SM SCT045=

USA.gov is the U.S. government's official web portal to all federal, state and local government web resources and services.